createdAt,value
2022-10-16T00:01:55.029Z,10.50
2022-10-16T00:04:23.762Z,13.13
2022-10-16T00:06:52.547Z,14.23
2022-10-16T00:09:22.934Z,14.57
2022-10-16T00:11:51.780Z,13.70
2022-10-16T00:14:21.018Z,15.60
2022-10-16T00:16:50.110Z,13.75
2022-10-16T00:19:18.982Z,13.95
2022-10-16T00:21:47.839Z,14.38
2022-10-16T00:24:36.827Z,12.20
2022-10-16T00:27:05.572Z,11.38
2022-10-16T00:29:34.576Z,12.13
2022-10-16T00:32:03.306Z,14.90
2022-10-16T00:34:32.262Z,13.68
2022-10-16T00:37:01.044Z,16.25
2022-10-16T00:39:29.889Z,15.40
2022-10-16T00:42:00.422Z,12.35
2022-10-16T00:44:47.618Z,17.10
2022-10-16T00:47:23.452Z,14.65
2022-10-16T00:49:55.359Z,15.38
2022-10-16T00:52:27.065Z,13.05
2022-10-16T00:54:57.478Z,19.00
2022-10-16T00:57:28.183Z,14.25
2022-10-16T00:59:57.976Z,17.15
2022-10-16T01:02:27.270Z,17.13
2022-10-16T01:04:57.140Z,18.73
2022-10-16T01:07:41.745Z,16.48
2022-10-16T01:10:19.693Z,16.65
2022-10-16T01:12:57.284Z,18.27
2022-10-16T01:15:32.167Z,17.00
2022-10-16T01:18:05.971Z,18.63
2022-10-16T01:20:40.746Z,18.75
2022-10-16T01:23:45.378Z,17.27
2022-10-16T01:28:55.343Z,19.42
2022-10-16T01:31:29.478Z,19.33
2022-10-16T01:34:04.799Z,15.43
2022-10-16T01:36:39.553Z,17.35
2022-10-16T01:39:11.558Z,16.15
2022-10-16T01:41:43.715Z,15.75
2022-10-16T01:44:22.178Z,18.02
2022-10-16T01:46:53.174Z,15.15
2022-10-16T01:49:23.721Z,16.88
2022-10-16T01:51:58.311Z,19.63
2022-10-16T01:54:30.330Z,16.10
2022-10-16T01:57:01.068Z,15.93
2022-10-16T01:59:35.213Z,14.68
2022-10-16T02:02:11.960Z,20.42
2022-10-16T02:04:45.451Z,15.40
2022-10-16T02:07:14.668Z,18.48
2022-10-16T02:09:43.854Z,20.20
2022-10-16T02:12:17.138Z,22.45
2022-10-16T02:14:47.787Z,22.38
2022-10-16T02:17:22.438Z,16.05
2022-10-16T02:19:54.870Z,16.98
2022-10-16T02:22:29.694Z,16.80
2022-10-16T02:25:02.342Z,17.90
2022-10-16T02:27:37.942Z,16.20
2022-10-16T02:30:12.859Z,16.60
2022-10-16T02:32:45.527Z,19.23
2022-10-16T02:35:15.654Z,17.90
2022-10-16T02:37:44.952Z,16.30
2022-10-16T02:40:14.829Z,14.13
2022-10-16T02:42:43.979Z,16.70
2022-10-16T02:45:14.264Z,18.83
2022-10-16T02:47:43.020Z,12.98
2022-10-16T02:50:11.973Z,15.55
2022-10-16T02:52:40.758Z,16.25
2022-10-16T02:55:09.848Z,15.05
2022-10-16T02:57:39.667Z,17.73
2022-10-16T03:00:10.084Z,16.15
2022-10-16T03:02:40.325Z,16.65
2022-10-16T03:05:11.986Z,15.02
2022-10-16T03:07:41.205Z,17.30
2022-10-16T03:10:10.891Z,17.10
2022-10-16T03:12:39.985Z,16.83
2022-10-16T03:15:10.418Z,15.15
2022-10-16T03:17:40.684Z,14.93
2022-10-16T03:20:10.299Z,20.23
2022-10-16T03:22:39.082Z,18.02
2022-10-16T03:25:08.752Z,13.45
2022-10-16T03:27:37.732Z,17.15
2022-10-16T03:30:07.624Z,16.58
2022-10-16T03:35:07.555Z,18.38
2022-10-16T03:37:36.591Z,17.40
2022-10-16T03:40:06.774Z,14.52
2022-10-16T03:42:35.612Z,19.58
2022-10-16T03:45:04.950Z,16.60
2022-10-16T03:47:34.525Z,17.50
2022-10-16T03:50:03.448Z,13.85
2022-10-16T03:52:34.125Z,15.35
2022-10-16T03:55:02.938Z,22.15
2022-10-16T03:57:31.714Z,15.68
2022-10-16T04:00:00.347Z,14.77
2022-10-16T04:02:29.161Z,18.23
2022-10-16T04:04:58.079Z,14.88
2022-10-16T04:07:27.498Z,14.18
2022-10-16T04:09:59.901Z,18.83
2022-10-16T04:12:29.073Z,14.95
2022-10-16T04:14:58.002Z,20.48
2022-10-16T04:17:27.272Z,17.08
2022-10-16T04:19:56.313Z,15.55
2022-10-16T04:22:25.198Z,19.08
2022-10-16T04:24:54.026Z,20.13
2022-10-16T04:27:24.461Z,17.52
2022-10-16T04:29:53.488Z,21.17
2022-10-16T04:32:22.345Z,19.48
2022-10-16T04:34:51.137Z,18.95
2022-10-16T04:37:20.177Z,17.13
2022-10-16T04:39:48.905Z,16.73
2022-10-16T04:42:17.744Z,19.73
2022-10-16T04:44:47.877Z,19.48
2022-10-16T04:47:17.206Z,19.02
2022-10-16T04:49:46.200Z,18.92
2022-10-16T04:52:15.387Z,17.23
2022-10-16T04:54:46.184Z,20.35
2022-10-16T04:57:15.138Z,19.63
2022-10-16T04:59:43.978Z,17.10
2022-10-16T05:02:14.217Z,17.23
2022-10-16T05:04:43.414Z,26.05
2022-10-16T05:07:12.478Z,19.35
2022-10-16T05:09:41.655Z,21.65
2022-10-16T05:12:10.496Z,21.05
2022-10-16T05:14:39.884Z,20.30
2022-10-16T05:17:08.711Z,20.77
2022-10-16T05:19:39.068Z,18.23
2022-10-16T05:22:07.959Z,21.00
2022-10-16T05:24:36.701Z,19.20
2022-10-16T05:27:05.879Z,20.38
2022-10-16T05:29:35.041Z,18.75
2022-10-16T05:32:04.593Z,22.90
2022-10-16T05:34:34.370Z,44.42
2022-10-16T05:37:04.586Z,20.08
2022-10-16T05:39:33.545Z,25.60
2022-10-16T05:42:05.103Z,23.90
2022-10-16T05:44:36.367Z,20.25
2022-10-16T05:47:05.989Z,18.85
2022-10-16T05:49:37.880Z,21.50
2022-10-16T05:52:13.540Z,18.70
2022-10-16T05:54:52.213Z,19.33
2022-10-16T05:57:21.208Z,17.45
2022-10-16T05:59:52.131Z,18.33
2022-10-16T06:02:21.529Z,18.98
2022-10-16T06:04:50.806Z,17.55
2022-10-16T06:07:21.464Z,15.15
2022-10-16T06:09:53.917Z,15.65
2022-10-16T06:12:22.861Z,19.60
2022-10-16T06:14:52.409Z,23.08
2022-10-16T06:17:42.627Z,16.42
2022-10-16T06:23:40.226Z,14.55
2022-10-16T06:26:45.152Z,16.52
2022-10-16T06:31:43.139Z,17.23
2022-10-16T06:34:12.752Z,18.02
2022-10-16T06:38:14.311Z,16.73
2022-10-16T06:40:45.859Z,16.75
2022-10-16T06:43:27.202Z,11.48
2022-10-16T06:45:57.781Z,14.65
2022-10-16T06:48:29.390Z,15.00
2022-10-16T06:51:29.746Z,59.47
2022-10-16T06:54:05.906Z,16.55
2022-10-16T06:56:38.997Z,15.32
2022-10-16T06:59:10.347Z,11.98
2022-10-16T07:01:39.492Z,13.23
2022-10-16T07:04:08.343Z,13.10
2022-10-16T07:06:37.322Z,9.73
2022-10-16T07:09:21.597Z,12.90
2022-10-16T07:11:54.400Z,11.45
2022-10-16T07:14:24.626Z,11.50
2022-10-16T07:16:53.861Z,12.40
2022-10-16T07:19:23.063Z,11.90
2022-10-16T07:21:58.154Z,10.93
2022-10-16T07:24:27.208Z,11.73
2022-10-16T07:27:00.263Z,11.32
2022-10-16T07:29:32.340Z,10.20
2022-10-16T07:32:01.263Z,11.40
2022-10-16T07:34:30.088Z,12.57
2022-10-16T07:36:58.917Z,10.25
2022-10-16T07:39:27.740Z,10.98
2022-10-16T07:41:57.869Z,9.55
2022-10-16T07:44:26.731Z,8.75
2022-10-16T07:46:55.539Z,10.00
2022-10-16T07:49:24.945Z,12.13
2022-10-16T07:51:54.328Z,11.27
2022-10-16T07:54:23.255Z,10.80
2022-10-16T07:56:52.044Z,13.65
2022-10-16T07:59:22.359Z,16.98
2022-10-16T08:01:51.916Z,13.13
2022-10-16T08:04:20.942Z,12.10
2022-10-16T08:06:50.805Z,16.42
2022-10-16T08:09:19.653Z,18.83
2022-10-16T08:11:48.496Z,13.20
2022-10-16T08:14:17.384Z,12.85
2022-10-16T08:16:47.656Z,10.77
2022-10-16T08:19:16.749Z,15.45
2022-10-16T08:21:48.994Z,10.13
2022-10-16T08:24:17.881Z,11.27
2022-10-16T08:26:49.020Z,62.92
2022-10-16T08:29:17.972Z,29.85
2022-10-16T08:31:48.268Z,11.23
2022-10-16T08:34:17.570Z,14.55
2022-10-16T08:36:47.244Z,12.93
2022-10-16T08:39:16.355Z,13.25
2022-10-16T08:42:11.301Z,10.98
2022-10-16T08:45:19.471Z,11.55
2022-10-16T08:47:58.611Z,7.35
2022-10-16T08:50:31.928Z,10.38
2022-10-16T08:53:06.198Z,8.75
2022-10-16T08:55:44.118Z,8.07
2022-10-16T08:58:21.003Z,10.50
2022-10-16T09:00:59.851Z,7.03
2022-10-16T09:03:48.603Z,9.50
2022-10-16T09:06:31.778Z,7.78
2022-10-16T09:09:13.551Z,9.93
2022-10-16T09:11:56.224Z,10.13
2022-10-16T09:14:57.006Z,9.90
2022-10-16T09:17:39.138Z,5.68
2022-10-16T09:20:23.408Z,13.65
2022-10-16T09:22:57.946Z,23.02
2022-10-16T09:25:28.023Z,9.90
2022-10-16T09:28:20.446Z,5.00
2022-10-16T09:31:03.857Z,5.63
2022-10-16T09:33:52.260Z,6.88
2022-10-16T09:36:42.470Z,6.07
2022-10-16T09:39:15.305Z,7.65
2022-10-16T09:41:48.192Z,6.15
2022-10-16T09:44:33.049Z,7.25
2022-10-16T09:47:08.506Z,8.63
2022-10-16T09:49:41.318Z,7.95
2022-10-16T09:54:52.365Z,6.35
2022-10-16T09:57:28.143Z,8.95
2022-10-16T09:59:59.419Z,7.93
2022-10-16T10:02:37.396Z,6.57
2022-10-16T10:05:27.414Z,8.60
2022-10-16T10:08:03.153Z,7.53
2022-10-16T10:10:33.957Z,8.13
2022-10-16T10:13:04.573Z,6.97
2022-10-16T10:15:41.026Z,8.23
2022-10-16T10:18:19.656Z,5.90
2022-10-16T10:23:35.531Z,7.63
2022-10-16T10:29:59.420Z,11.75
2022-10-16T10:32:40.570Z,7.35
2022-10-16T10:35:18.024Z,9.98
2022-10-16T10:38:01.464Z,11.75
2022-10-16T10:40:40.039Z,6.72
2022-10-16T10:43:19.653Z,7.10
2022-10-16T10:45:52.328Z,6.20
2022-10-16T10:48:35.422Z,8.50
2022-10-16T10:51:08.096Z,6.70
2022-10-16T10:53:49.232Z,5.97
2022-10-16T10:56:32.171Z,7.57
2022-10-16T10:59:44.406Z,7.07
2022-10-16T11:02:20.245Z,8.07
2022-10-16T11:05:28.281Z,6.60
2022-10-16T11:08:01.361Z,5.30
2022-10-16T11:10:46.724Z,5.20
2022-10-16T11:13:27.184Z,5.00
2022-10-16T11:16:21.860Z,6.40
2022-10-16T11:19:01.334Z,8.88
2022-10-16T11:21:49.608Z,5.45
2022-10-16T11:24:24.099Z,5.65
2022-10-16T11:26:57.682Z,7.88
2022-10-16T11:29:31.705Z,5.00
2022-10-16T11:32:32.134Z,4.03
2022-10-16T11:38:58.275Z,5.30
2022-10-16T11:43:40.546Z,4.85
2022-10-16T11:46:27.110Z,5.30
2022-10-16T11:52:58.086Z,4.50
2022-10-16T11:55:43.300Z,5.93
2022-10-16T11:58:54.211Z,4.50
2022-10-16T12:01:31.441Z,3.70
2022-10-16T12:04:31.952Z,5.65
2022-10-16T12:07:50.680Z,4.75
2022-10-16T12:13:27.920Z,6.43
2022-10-16T12:16:50.778Z,7.28
2022-10-16T12:19:33.948Z,5.88
2022-10-16T12:22:42.239Z,6.32
2022-10-16T12:25:32.147Z,4.70
2022-10-16T12:28:06.622Z,7.03
2022-10-16T12:30:40.538Z,4.78
2022-10-16T12:34:19.440Z,6.63
2022-10-16T12:38:03.892Z,6.78
2022-10-16T12:41:09.404Z,4.70
2022-10-16T12:43:43.269Z,5.22
2022-10-16T12:46:46.881Z,4.93
2022-10-16T12:49:35.874Z,4.35
2022-10-16T12:52:08.487Z,6.82
2022-10-16T12:54:39.848Z,5.85
2022-10-16T12:57:54.417Z,6.28
2022-10-16T13:00:28.754Z,5.47
2022-10-16T13:03:56.505Z,4.80
2022-10-16T13:06:38.201Z,4.47
2022-10-16T13:09:49.204Z,4.63
2022-10-16T13:12:39.485Z,4.72
2022-10-16T13:15:40.646Z,4.53
2022-10-16T13:18:20.926Z,6.35
2022-10-16T13:21:49.709Z,5.47
2022-10-16T13:24:35.189Z,6.43
2022-10-16T13:27:17.028Z,6.22
2022-10-16T13:29:48.107Z,4.63
2022-10-16T13:32:26.330Z,4.47
2022-10-16T13:35:02.126Z,6.47
2022-10-16T13:37:30.904Z,5.55
2022-10-16T13:40:24.827Z,6.13
2022-10-16T13:43:06.167Z,5.18
2022-10-16T13:45:36.838Z,6.93
2022-10-16T13:48:13.477Z,8.20
2022-10-16T13:50:42.366Z,6.15
2022-10-16T13:53:16.066Z,6.60
2022-10-16T13:55:44.912Z,6.10
2022-10-16T13:58:16.159Z,4.90
2022-10-16T14:00:58.199Z,5.15
2022-10-16T14:03:28.489Z,6.22
2022-10-16T14:06:00.015Z,7.78
2022-10-16T14:08:30.379Z,7.60
2022-10-16T14:11:04.867Z,5.90
2022-10-16T14:13:43.245Z,4.75
2022-10-16T14:16:22.516Z,7.15
2022-10-16T14:19:01.445Z,7.75
2022-10-16T14:22:55.840Z,4.57
2022-10-16T14:25:30.570Z,5.97
2022-10-16T14:28:30.923Z,8.48
2022-10-16T14:35:15.738Z,5.97
2022-10-16T14:37:47.711Z,5.50
2022-10-16T14:40:17.786Z,5.32
2022-10-16T14:42:48.416Z,8.95
2022-10-16T14:45:22.373Z,5.82
2022-10-16T14:47:54.878Z,6.43
2022-10-16T14:50:28.754Z,6.40
2022-10-16T14:53:01.896Z,7.78
2022-10-16T14:55:34.094Z,6.68
2022-10-16T14:58:25.006Z,7.72
2022-10-16T15:00:54.117Z,5.93
2022-10-16T15:03:23.721Z,6.85
2022-10-16T15:14:54.561Z,7.97
2022-10-16T15:17:23.642Z,8.45
2022-10-16T15:20:44.154Z,10.52
2022-10-16T15:23:30.691Z,45.78
2022-10-16T15:26:02.903Z,14.98
2022-10-16T15:28:32.138Z,9.45
2022-10-16T15:31:02.963Z,9.27
2022-10-16T15:33:38.763Z,11.68
2022-10-16T15:36:11.271Z,17.08
2022-10-16T15:38:55.360Z,11.80
2022-10-16T15:41:35.690Z,8.48
2022-10-16T15:44:04.955Z,13.32
2022-10-16T15:46:38.778Z,14.43
2022-10-16T15:49:08.294Z,9.00
2022-10-16T15:51:41.526Z,7.07
2022-10-16T15:54:10.732Z,12.63
2022-10-16T15:56:39.614Z,8.23
2022-10-16T15:59:08.538Z,8.90
2022-10-16T16:01:41.841Z,8.45
2022-10-16T16:04:25.721Z,8.82
2022-10-16T16:06:59.736Z,9.55
2022-10-16T16:09:34.120Z,11.90
2022-10-16T16:12:06.702Z,16.27
2022-10-16T16:14:41.841Z,11.00
2022-10-16T16:17:34.549Z,13.25
2022-10-16T16:20:13.387Z,10.68
2022-10-16T16:22:45.579Z,18.05
2022-10-16T16:25:17.185Z,15.25
2022-10-16T16:27:46.004Z,14.73
2022-10-16T16:30:18.586Z,15.48
2022-10-16T16:32:50.177Z,19.73
2022-10-16T16:35:29.016Z,11.77
2022-10-16T16:37:58.394Z,20.98
2022-10-16T16:40:30.510Z,18.77
2022-10-16T16:42:59.496Z,17.30
2022-10-16T16:45:31.608Z,17.00
2022-10-16T16:48:09.392Z,19.05
2022-10-16T16:50:45.087Z,21.27
2022-10-16T16:53:24.068Z,17.55
2022-10-16T16:56:04.831Z,15.32
2022-10-16T16:58:36.877Z,14.70
2022-10-16T17:01:19.268Z,19.52
2022-10-16T17:04:03.006Z,17.75
2022-10-16T17:06:37.942Z,17.85
2022-10-16T17:11:57.018Z,22.63
2022-10-16T17:14:43.263Z,17.08
2022-10-16T17:17:13.661Z,15.75
2022-10-16T17:19:45.621Z,20.35
2022-10-16T17:22:25.321Z,16.88
2022-10-16T17:24:57.680Z,17.95
2022-10-16T17:28:07.382Z,16.15
2022-10-16T17:30:40.067Z,17.63
2022-10-16T17:33:12.489Z,14.10
2022-10-16T17:35:45.639Z,15.40
2022-10-16T17:38:23.730Z,15.25
2022-10-16T17:40:53.531Z,11.85
2022-10-16T17:43:29.688Z,13.90
2022-10-16T17:46:08.726Z,14.60
2022-10-16T17:48:57.487Z,15.15
2022-10-16T17:51:41.878Z,11.82
2022-10-16T17:54:44.001Z,12.85
2022-10-16T17:57:15.962Z,12.43
2022-10-16T17:59:46.486Z,13.05
2022-10-16T18:02:17.391Z,9.80
2022-10-16T18:04:48.536Z,12.50
2022-10-16T18:07:19.958Z,15.57
2022-10-16T18:10:11.326Z,9.43
2022-10-16T18:12:40.257Z,9.30
2022-10-16T18:15:15.327Z,11.30
2022-10-16T18:17:47.415Z,12.63
2022-10-16T18:20:20.898Z,10.27
2022-10-16T18:23:17.649Z,10.02
2022-10-16T18:25:58.418Z,11.57
2022-10-16T18:28:35.126Z,10.13
2022-10-16T18:31:17.983Z,11.45
2022-10-16T18:34:07.542Z,9.73
2022-10-16T18:36:50.187Z,10.77
2022-10-16T18:39:36.270Z,11.88
2022-10-16T18:42:11.229Z,10.82
2022-10-16T18:44:55.477Z,9.63
2022-10-16T18:47:25.171Z,10.82
2022-10-16T18:50:01.722Z,10.68
2022-10-16T18:52:32.473Z,10.82
2022-10-16T18:55:19.766Z,11.50
2022-10-16T18:58:00.529Z,8.40
2022-10-16T19:00:39.442Z,11.60
2022-10-16T19:03:19.607Z,13.40
2022-10-16T19:07:04.409Z,9.18
2022-10-16T19:09:45.820Z,10.45
2022-10-16T19:12:26.985Z,10.80
2022-10-16T19:15:03.971Z,8.82
2022-10-16T19:17:39.828Z,11.45
2022-10-16T19:20:20.874Z,11.93
2022-10-16T19:22:59.155Z,9.98
2022-10-16T19:25:29.186Z,10.77
2022-10-16T19:28:03.565Z,10.15
2022-10-16T19:30:33.073Z,10.48
2022-10-16T19:33:03.715Z,10.93
2022-10-16T19:35:34.075Z,10.40
2022-10-16T19:38:03.207Z,8.25
2022-10-16T19:40:32.590Z,12.63
2022-10-16T19:43:20.445Z,9.15
2022-10-16T19:46:13.571Z,10.30
2022-10-16T19:48:48.825Z,8.93
2022-10-16T19:51:22.476Z,18.20
2022-10-16T19:54:03.014Z,11.38
2022-10-16T19:56:35.329Z,7.47
2022-10-16T20:02:04.528Z,19.25
2022-10-16T20:04:39.487Z,28.67
2022-10-16T20:07:08.953Z,11.75
2022-10-16T20:09:38.436Z,8.57
2022-10-16T20:12:08.001Z,9.95
2022-10-16T20:18:12.298Z,11.80
2022-10-16T20:20:53.631Z,8.70
2022-10-16T20:23:25.017Z,10.95
2022-10-16T20:25:58.231Z,10.82
2022-10-16T20:28:33.026Z,9.68
2022-10-16T20:31:12.580Z,11.70
2022-10-16T20:33:47.135Z,10.70
2022-10-16T20:36:17.530Z,7.75
2022-10-16T20:38:50.667Z,9.05
2022-10-16T20:41:20.661Z,11.02
2022-10-16T20:43:58.599Z,11.25
2022-10-16T20:46:31.956Z,9.90
2022-10-16T20:49:11.337Z,16.15
2022-10-16T20:51:51.115Z,8.82
2022-10-16T20:54:22.172Z,10.30
2022-10-16T20:56:53.143Z,8.80
2022-10-16T20:59:26.107Z,9.40
2022-10-16T21:02:00.489Z,11.23
2022-10-16T21:04:41.163Z,12.70
2022-10-16T21:07:12.312Z,11.00
2022-10-16T21:09:44.474Z,10.77
2022-10-16T21:12:13.515Z,10.82
2022-10-16T21:14:56.580Z,9.35
2022-10-16T21:17:34.004Z,12.52
2022-10-16T21:20:03.437Z,10.32
2022-10-16T21:22:34.845Z,12.05
2022-10-16T21:25:04.164Z,13.85
2022-10-16T21:27:45.103Z,14.25
2022-10-16T21:30:14.254Z,11.38
2022-10-16T21:32:44.412Z,12.45
2022-10-16T21:35:16.719Z,16.52
2022-10-16T21:37:50.118Z,13.70
2022-10-16T21:40:20.525Z,13.52
2022-10-16T21:42:49.564Z,16.15
2022-10-16T21:45:21.336Z,12.52
2022-10-16T21:47:51.598Z,16.40
2022-10-16T21:50:23.547Z,13.32
2022-10-16T21:52:52.894Z,17.15
2022-10-16T21:55:21.908Z,14.18
2022-10-16T21:57:53.125Z,15.93
2022-10-16T22:00:24.613Z,15.32
2022-10-16T22:02:58.660Z,16.05
2022-10-16T22:05:27.865Z,21.02
2022-10-16T22:07:57.098Z,15.70
2022-10-16T22:10:30.529Z,20.77
2022-10-16T22:13:33.622Z,18.25
2022-10-16T22:16:03.308Z,15.10
2022-10-16T22:18:35.971Z,16.95
2022-10-16T22:21:06.909Z,19.75
2022-10-16T22:23:36.109Z,19.10
2022-10-16T22:26:09.668Z,16.83
2022-10-16T22:28:39.976Z,22.52
2022-10-16T22:31:11.563Z,16.95
2022-10-16T22:33:45.171Z,17.90
2022-10-16T22:36:15.598Z,15.15
2022-10-16T22:38:44.346Z,18.63
2022-10-16T22:41:16.630Z,18.33
2022-10-16T22:43:48.220Z,18.35
2022-10-16T22:46:19.139Z,19.95
2022-10-16T22:48:49.295Z,18.27
2022-10-16T22:51:18.804Z,19.20
2022-10-16T22:53:48.948Z,17.67
2022-10-16T22:56:20.296Z,20.50
2022-10-16T22:58:50.028Z,19.42
2022-10-16T23:01:22.941Z,16.05
2022-10-16T23:03:53.243Z,19.75
2022-10-16T23:06:22.385Z,17.45
2022-10-16T23:08:55.086Z,23.42
2022-10-16T23:11:24.398Z,20.35
2022-10-16T23:13:53.871Z,18.27
2022-10-16T23:16:24.347Z,20.98
2022-10-16T23:18:54.917Z,19.08
2022-10-16T23:21:25.596Z,18.00
2022-10-16T23:23:55.525Z,21.15
2022-10-16T23:26:27.502Z,22.35
2022-10-16T23:28:57.931Z,17.90
2022-10-16T23:31:27.794Z,19.88
2022-10-16T23:33:59.801Z,20.23
2022-10-16T23:36:29.291Z,19.13
2022-10-16T23:38:58.253Z,22.65
2022-10-16T23:41:27.157Z,19.63
2022-10-16T23:43:55.937Z,18.42
2022-10-16T23:48:53.248Z,17.58
2022-10-16T23:51:23.682Z,19.10
2022-10-16T23:53:53.705Z,20.30
2022-10-16T23:56:22.579Z,20.85
2022-10-16T23:58:51.442Z,20.10
